EDT,Max TemperatureF,Mean TemperatureF,Min TemperatureF,Max Dew PointF,MeanDew PointF,Min DewpointF,Max Humidity, Mean Humidity, Min Humidity, Max Sea Level PressureIn, Mean Sea Level PressureIn, Min Sea Level PressureIn, Max VisibilityMiles, Mean VisibilityMiles, Min VisibilityMiles, Max Wind SpeedMPH, Mean Wind SpeedMPH, Max Gust SpeedMPH,PrecipitationIn, CloudCover, Events, WindDirDegrees
2013-9-1,89,85,81,77,75,71,88,75,57,29.98,29.95,29.91,10,10,10,12,8,,0.00,1,Thunderstorm,202
2013-9-2,89,84,78,79,75,72,89,76,59,30.01,29.97,29.93,10,9,0,13,8,21,0.51,2,Fog-Rain-Thunderstorm,215
2013-9-3,91,86,80,79,76,74,90,79,57,30.03,29.96,29.93,10,9,2,12,5,,0.14,4,Rain-Thunderstorm,259
2013-9-4,93,85,79,78,76,74,88,77,55,30.08,30.02,29.96,10,9,1,12,5,30,0.30,1,Rain,84
2013-9-5,95,87,81,79,76,70,85,74,52,30.09,30.04,29.99,10,10,8,15,10,,0.02,1,Rain,76
2013-9-6,93,84,78,79,76,71,90,77,55,30.06,30.00,29.94,10,9,1,31,10,36,0.28,2,Rain-Thunderstorm,90
2013-9-7,90,83,77,75,73,71,88,76,57,30.02,29.97,29.91,10,10,4,24,10,30,0.07,2,Rain-Thunderstorm,53
2013-9-8,91,86,80,76,74,70,85,70,52,29.97,29.93,29.86,10,10,10,20,9,,0.00,1,,64
2013-9-9,91,86,81,76,74,71,85,70,52,30.03,29.97,29.93,10,10,10,22,12,,0.00,0,,81
2013-9-10,91,85,80,77,74,69,87,71,52,30.08,30.03,29.99,10,10,10,21,15,31,0.00,0,,87
2013-9-11,91,86,80,77,74,71,90,71,52,30.07,30.02,29.98,10,10,10,17,14,,0.00,0,,96
2013-9-12,89,82,77,77,75,72,94,81,63,30.01,29.95,29.88,10,10,2,21,10,30,0.16,4,Rain-Thunderstorm,127
2013-9-13,87,80,75,77,74,72,91,79,65,29.90,29.86,29.81,10,8,0,18,5,21,1.17,3,Fog-Rain-Thunderstorm,244
2013-9-14,88,83,79,77,74,71,90,75,59,29.97,29.90,29.84,10,10,10,21,3,,0.00,1,Rain,112
2013-9-15,91,82,73,79,76,74,100,85,63,30.09,30.01,29.96,10,9,2,38,14,45,0.12,2,Rain-Thunderstorm,118
2013-9-16,91,83,75,78,76,73,100,87,61,30.07,30.01,29.96,10,9,2,33,14,43,0.02,2,Rain-Thunderstorm,107
2013-9-17,89,82,75,76,75,74,97,87,65,30.05,29.99,29.94,10,9,2,25,13,37,0.09,2,Rain,98
2013-9-18,87,82,77,77,76,74,96,89,67,30.03,29.99,29.95,10,9,1,25,14,36,0.48,4,Rain,87
2013-9-19,89,82,75,78,76,74,100,88,65,30.05,30.00,29.96,10,8,1,29,14,32,1.01,4,Rain-Thunderstorm,99
2013-9-20,88,83,78,75,72,69,90,72,53,30.02,29.97,29.89,10,10,10,18,10,,0.00,1,,103
2013-9-21,88,82,78,75,71,69,79,69,57,29.93,29.85,29.78,10,10,10,15,11,,0.00,0,,181
2013-9-22,88,84,80,77,76,74,87,75,65,29.84,29.79,29.75,10,10,10,18,9,23,0.00,3,,226
2013-9-23,82,80,77,79,77,75,96,92,79,29.94,29.90,29.82,10,7,0,20,11,24,1.12,6,Fog-Rain-Thunderstorm,173
2013-9-24,81,78,75,78,76,74,97,92,85,29.95,29.91,29.85,10,8,2,16,11,,1.20,6,Rain-Thunderstorm,225
2013-9-25,82,76,72,78,74,71,100,92,81,29.93,29.86,29.79,10,6,0,16,10,31,2.28,6,Fog-Rain-Thunderstorm,291
2013-9-26,88,83,79,79,76,71,96,82,63,29.87,29.83,29.79,10,10,2,16,9,23,0.07,3,Rain,296
2013-9-27,84,78,73,73,72,70,91,79,65,29.97,29.91,29.87,10,10,10,18,10,,0.00,4,,48
2013-9-28,88,81,75,74,73,71,94,81,61,30.02,29.97,29.92,10,8,2,25,14,,0.28,4,Rain,67
2013-9-29,89,82,75,73,71,67,85,71,49,29.99,29.95,29.89,10,10,10,20,12,,0.00,2,,65
2013-9-30,89,82,77,75,72,68,84,73,53,30.00,29.95,29.91,10,10,10,20,10,,0.00,1,,84